sensor_id;sensor_type;location;lat;lon;timestamp;pressure;altitude;pressure_sealevel;temperature;humidity
70458;BME280;57919;56.194;95.716;2023-04-07T00:03:34;97962.09;;;7.07;33.17
70458;BME280;57919;56.194;95.716;2023-04-07T00:13:36;97957.84;;;7.61;32.74
70458;BME280;57919;56.194;95.716;2023-04-07T00:23:38;97943.69;;;8.14;31.78
70458;BME280;57919;56.194;95.716;2023-04-07T00:33:40;97950.28;;;8.64;31.33
70458;BME280;57919;56.194;95.716;2023-04-07T00:43:41;97947.91;;;9.23;30.39
70458;BME280;57919;56.194;95.716;2023-04-07T00:53:43;97939.59;;;9.76;29.70
70458;BME280;57919;56.194;95.716;2023-04-07T01:03:50;97926.50;;;10.40;29.09
70458;BME280;57919;56.194;95.716;2023-04-07T01:13:53;97916.06;;;11.10;28.10
70458;BME280;57919;56.194;95.716;2023-04-07T01:24:44;97925.59;;;11.77;26.87
70458;BME280;57919;56.194;95.716;2023-04-07T01:34:48;97915.91;;;12.53;26.85
70458;BME280;57919;56.194;95.716;2023-04-07T01:44:52;97910.59;;;13.05;26.19
70458;BME280;57919;56.194;95.716;2023-04-07T01:54:55;97906.56;;;13.98;25.80
70458;BME280;57919;56.194;95.716;2023-04-07T02:05:04;97907.84;;;14.67;25.23
70458;BME280;57919;56.194;95.716;2023-04-07T02:15:08;97904.94;;;15.11;24.69
70458;BME280;57919;56.194;95.716;2023-04-07T02:35:28;97898.44;;;15.62;23.84
70458;BME280;57919;56.194;95.716;2023-04-07T02:45:30;97881.44;;;15.10;24.17
70458;BME280;57919;56.194;95.716;2023-04-07T02:55:32;97874.53;;;15.64;23.53
70458;BME280;57919;56.194;95.716;2023-04-07T03:05:34;97870.91;;;15.91;23.34
70458;BME280;57919;56.194;95.716;2023-04-07T03:15:37;97859.06;;;15.71;23.08
70458;BME280;57919;56.194;95.716;2023-04-07T03:25:40;97862.94;;;15.90;22.87
70458;BME280;57919;56.194;95.716;2023-04-07T03:35:43;97847.38;;;16.44;22.91
70458;BME280;57919;56.194;95.716;2023-04-07T03:45:46;97837.63;;;16.90;21.89
70458;BME280;57919;56.194;95.716;2023-04-07T03:55:50;97820.59;;;17.01;22.31
70458;BME280;57919;56.194;95.716;2023-04-07T04:06:18;97808.19;;;17.11;22.16
70458;BME280;57919;56.194;95.716;2023-04-07T04:16:21;97806.91;;;17.34;22.41
70458;BME280;57919;56.194;95.716;2023-04-07T04:26:25;97780.72;;;17.78;22.02
70458;BME280;57919;56.194;95.716;2023-04-07T04:36:31;97782.09;;;17.35;22.13
70458;BME280;57919;56.194;95.716;2023-04-07T04:46:38;97762.69;;;17.57;22.21
70458;BME280;57919;56.194;95.716;2023-04-07T04:56:42;97755.03;;;17.85;22.50
70458;BME280;57919;56.194;95.716;2023-04-07T05:06:44;97759.59;;;17.33;22.35
70458;BME280;57919;56.194;95.716;2023-04-07T05:16:49;97734.44;;;16.85;23.02
70458;BME280;57919;56.194;95.716;2023-04-07T05:26:56;97730.00;;;16.38;23.35
70458;BME280;57919;56.194;95.716;2023-04-07T05:37:00;97733.16;;;16.48;23.54
70458;BME280;57919;56.194;95.716;2023-04-07T05:47:02;97707.25;;;15.85;24.20
70458;BME280;57919;56.194;95.716;2023-04-07T05:57:10;97699.97;;;16.25;24.62
70458;BME280;57919;56.194;95.716;2023-04-07T06:07:17;97695.38;;;16.52;24.31
70458;BME280;57919;56.194;95.716;2023-04-07T06:17:19;97672.69;;;16.51;24.02
70458;BME280;57919;56.194;95.716;2023-04-07T06:27:22;97681.09;;;16.50;24.60
70458;BME280;57919;56.194;95.716;2023-04-07T06:37:25;97659.47;;;16.55;23.75
70458;BME280;57919;56.194;95.716;2023-04-07T06:47:26;97658.41;;;16.29;25.01
70458;BME280;57919;56.194;95.716;2023-04-07T06:57:28;97635.53;;;16.30;25.39
70458;BME280;57919;56.194;95.716;2023-04-07T07:07:30;97617.66;;;16.74;24.34
70458;BME280;57919;56.194;95.716;2023-04-07T07:17:33;97630.50;;;16.47;24.68
70458;BME280;57919;56.194;95.716;2023-04-07T07:27:35;97611.63;;;16.19;25.03
70458;BME280;57919;56.194;95.716;2023-04-07T07:37:37;97612.00;;;15.76;24.56
70458;BME280;57919;56.194;95.716;2023-04-07T07:47:39;97645.03;;;14.09;30.75
70458;BME280;57919;56.194;95.716;2023-04-07T07:57:42;97678.38;;;11.21;37.80
70458;BME280;57919;56.194;95.716;2023-04-07T08:07:44;97708.69;;;9.56;42.51
70458;BME280;57919;56.194;95.716;2023-04-07T08:17:47;97707.41;;;8.76;45.06
70458;BME280;57919;56.194;95.716;2023-04-07T08:27:49;97737.19;;;8.22;46.88
70458;BME280;57919;56.194;95.716;2023-04-07T08:37:51;97749.06;;;7.94;47.97
70458;BME280;57919;56.194;95.716;2023-04-07T08:47:54;97766.56;;;7.27;50.34
70458;BME280;57919;56.194;95.716;2023-04-07T08:57:59;97816.94;;;6.51;51.60
70458;BME280;57919;56.194;95.716;2023-04-07T09:08:02;97833.00;;;5.54;54.53
70458;BME280;57919;56.194;95.716;2023-04-07T09:18:04;97856.34;;;4.93;55.72
70458;BME280;57919;56.194;95.716;2023-04-07T09:28:07;97869.44;;;4.44;55.09
70458;BME280;57919;56.194;95.716;2023-04-07T09:38:09;97879.94;;;4.15;55.20
70458;BME280;57919;56.194;95.716;2023-04-07T09:48:19;97882.41;;;4.07;55.75
70458;BME280;57919;56.194;95.716;2023-04-07T09:58:21;97890.94;;;3.58;57.11
70458;BME280;57919;56.194;95.716;2023-04-07T10:08:23;97872.38;;;3.34;58.06
70458;BME280;57919;56.194;95.716;2023-04-07T10:18:29;97888.66;;;3.31;58.15
70458;BME280;57919;56.194;95.716;2023-04-07T10:28:37;97897.53;;;3.09;57.62
70458;BME280;57919;56.194;95.716;2023-04-07T10:38:41;97908.81;;;3.02;57.98
70458;BME280;57919;56.194;95.716;2023-04-07T10:49:07;97936.00;;;2.96;58.45
70458;BME280;57919;56.194;95.716;2023-04-07T10:59:13;97947.88;;;2.69;60.39
70458;BME280;57919;56.194;95.716;2023-04-07T11:09:18;97947.28;;;2.07;63.41
70458;BME280;57919;56.194;95.716;2023-04-07T11:19:21;97963.44;;;1.56;64.88
70458;BME280;57919;56.194;95.716;2023-04-07T11:29:29;97995.13;;;1.35;64.21
70458;BME280;57919;56.194;95.716;2023-04-07T11:39:32;98016.97;;;1.02;64.05
70458;BME280;57919;56.194;95.716;2023-04-07T11:49:43;98012.94;;;0.96;63.74
70458;BME280;57919;56.194;95.716;2023-04-07T11:59:46;98017.44;;;0.56;64.39
70458;BME280;57919;56.194;95.716;2023-04-07T12:09:48;98030.50;;;0.47;64.88
70458;BME280;57919;56.194;95.716;2023-04-07T12:19:50;98043.88;;;0.32;65.85
70458;BME280;57919;56.194;95.716;2023-04-07T12:29:52;98053.41;;;0.22;66.32
70458;BME280;57919;56.194;95.716;2023-04-07T12:39:53;98082.97;;;0.04;66.18
70458;BME280;57919;56.194;95.716;2023-04-07T12:49:55;98089.38;;;-0.42;66.78
70458;BME280;57919;56.194;95.716;2023-04-07T12:59:58;98093.84;;;-0.28;66.07
70458;BME280;57919;56.194;95.716;2023-04-07T13:09:59;98128.84;;;-0.36;66.89
70458;BME280;57919;56.194;95.716;2023-04-07T13:20:03;98144.00;;;-0.66;67.99
70458;BME280;57919;56.194;95.716;2023-04-07T13:30:05;98162.63;;;-0.96;68.25
70458;BME280;57919;56.194;95.716;2023-04-07T13:40:08;98186.66;;;-1.29;68.03
70458;BME280;57919;56.194;95.716;2023-04-07T13:50:10;98182.56;;;-1.66;68.32
70458;BME280;57919;56.194;95.716;2023-04-07T14:00:12;98200.50;;;-1.87;67.80
70458;BME280;57919;56.194;95.716;2023-04-07T14:10:15;98220.78;;;-2.19;66.91
70458;BME280;57919;56.194;95.716;2023-04-07T14:20:17;98255.47;;;-2.41;67.32
70458;BME280;57919;56.194;95.716;2023-04-07T14:30:19;98259.84;;;-2.74;66.52
70458;BME280;57919;56.194;95.716;2023-04-07T14:40:21;98268.59;;;-2.91;66.70
70458;BME280;57919;56.194;95.716;2023-04-07T14:50:23;98289.78;;;-2.91;67.26
70458;BME280;57919;56.194;95.716;2023-04-07T15:00:25;98307.97;;;-3.02;67.10
70458;BME280;57919;56.194;95.716;2023-04-07T15:10:29;98333.22;;;-3.14;66.94
70458;BME280;57919;56.194;95.716;2023-04-07T15:20:31;98347.56;;;-3.38;68.41
70458;BME280;57919;56.194;95.716;2023-04-07T15:30:33;98367.84;;;-3.58;69.38
70458;BME280;57919;56.194;95.716;2023-04-07T15:40:38;98387.94;;;-3.74;71.11
70458;BME280;57919;56.194;95.716;2023-04-07T15:50:40;98415.88;;;-3.68;71.69
70458;BME280;57919;56.194;95.716;2023-04-07T16:00:42;98436.53;;;-4.18;73.21
70458;BME280;57919;56.194;95.716;2023-04-07T16:10:44;98459.50;;;-4.64;74.50
70458;BME280;57919;56.194;95.716;2023-04-07T16:20:46;98469.50;;;-4.72;75.56
70458;BME280;57919;56.194;95.716;2023-04-07T16:30:48;98500.72;;;-5.07;74.72
70458;BME280;57919;56.194;95.716;2023-04-07T16:40:49;98499.78;;;-5.29;75.01
70458;BME280;57919;56.194;95.716;2023-04-07T16:50:51;98501.06;;;-5.16;75.12
70458;BME280;57919;56.194;95.716;2023-04-07T17:00:53;98546.38;;;-5.30;74.28
70458;BME280;57919;56.194;95.716;2023-04-07T17:10:55;98570.03;;;-5.28;74.58
70458;BME280;57919;56.194;95.716;2023-04-07T17:20:57;98569.38;;;-5.35;73.72
70458;BME280;57919;56.194;95.716;2023-04-07T17:30:59;98576.69;;;-5.43;74.68
70458;BME280;57919;56.194;95.716;2023-04-07T17:41:03;98602.25;;;-5.45;74.41
70458;BME280;57919;56.194;95.716;2023-04-07T17:51:05;98611.00;;;-5.71;73.86
70458;BME280;57919;56.194;95.716;2023-04-07T18:01:07;98618.06;;;-5.71;74.62
70458;BME280;57919;56.194;95.716;2023-04-07T18:11:10;98625.34;;;-5.79;75.07
70458;BME280;57919;56.194;95.716;2023-04-07T18:21:12;98635.38;;;-5.91;75.23
70458;BME280;57919;56.194;95.716;2023-04-07T18:31:14;98659.03;;;-5.89;76.27
70458;BME280;57919;56.194;95.716;2023-04-07T18:41:16;98650.00;;;-5.82;75.54
70458;BME280;57919;56.194;95.716;2023-04-07T18:51:19;98681.69;;;-5.85;74.73
70458;BME280;57919;56.194;95.716;2023-04-07T19:01:21;98673.66;;;-5.80;73.60
70458;BME280;57919;56.194;95.716;2023-04-07T19:11:23;98685.97;;;-5.81;72.94
70458;BME280;57919;56.194;95.716;2023-04-07T19:21:25;98713.19;;;-5.82;73.39
70458;BME280;57919;56.194;95.716;2023-04-07T19:31:28;98722.59;;;-5.73;73.52
70458;BME280;57919;56.194;95.716;2023-04-07T19:41:30;98735.00;;;-5.77;72.16
70458;BME280;57919;56.194;95.716;2023-04-07T19:51:33;98738.44;;;-5.75;71.43
70458;BME280;57919;56.194;95.716;2023-04-07T20:01:35;98743.56;;;-5.70;69.95
70458;BME280;57919;56.194;95.716;2023-04-07T20:11:37;98778.22;;;-6.13;60.88
70458;BME280;57919;56.194;95.716;2023-04-07T20:21:39;98795.44;;;-6.33;56.99
70458;BME280;57919;56.194;95.716;2023-04-07T20:31:42;98800.50;;;-6.58;55.31
70458;BME280;57919;56.194;95.716;2023-04-07T20:41:44;98826.91;;;-6.96;53.17
70458;BME280;57919;56.194;95.716;2023-04-07T20:51:46;98850.06;;;-7.12;54.11
70458;BME280;57919;56.194;95.716;2023-04-07T21:01:48;98846.91;;;-7.28;52.01
70458;BME280;57919;56.194;95.716;2023-04-07T21:11:50;98873.53;;;-7.43;52.61
70458;BME280;57919;56.194;95.716;2023-04-07T21:21:52;98887.16;;;-7.66;52.02
70458;BME280;57919;56.194;95.716;2023-04-07T21:31:53;98922.31;;;-7.73;51.11
70458;BME280;57919;56.194;95.716;2023-04-07T21:41:55;98952.72;;;-8.09;50.33
70458;BME280;57919;56.194;95.716;2023-04-07T21:51:57;98980.38;;;-8.37;50.28
70458;BME280;57919;56.194;95.716;2023-04-07T22:02:01;98985.81;;;-8.51;50.64
70458;BME280;57919;56.194;95.716;2023-04-07T22:12:03;99009.84;;;-8.78;50.13
70458;BME280;57919;56.194;95.716;2023-04-07T22:22:05;99018.00;;;-9.01;50.50
70458;BME280;57919;56.194;95.716;2023-04-07T22:32:08;99029.38;;;-9.01;51.71
70458;BME280;57919;56.194;95.716;2023-04-07T22:42:10;99064.41;;;-9.09;51.60
70458;BME280;57919;56.194;95.716;2023-04-07T22:52:12;99090.84;;;-9.32;51.16
70458;BME280;57919;56.194;95.716;2023-04-07T23:02:14;99119.00;;;-9.53;51.14
70458;BME280;57919;56.194;95.716;2023-04-07T23:12:16;99141.72;;;-9.58;50.61
70458;BME280;57919;56.194;95.716;2023-04-07T23:22:18;99154.00;;;-9.66;50.94
70458;BME280;57919;56.194;95.716;2023-04-07T23:32:20;99176.91;;;-9.94;49.24
70458;BME280;57919;56.194;95.716;2023-04-07T23:42:22;99190.81;;;-9.87;49.45
70458;BME280;57919;56.194;95.716;2023-04-07T23:52:24;99191.44;;;-9.55;49.37
